Aviation Digital Data Service (ADDS)

Output produced by METARs form (0211 UTC 14 December 2017)
found at http://www.aviationweather.gov/adds/metars/
 
KNMM 140156Z 24008KT 10SM CLR 11/M01 A2992 RMK AO2 SLP142 T01111011
KNMM 140056Z 21005KT 10SM CLR 11/M02 A2992 RMK AO2 SLP142 T01061022
KNMM 132356Z VRB04KT 10SM FEW250 11/M03 A2992 RMK AO2 SLP145 T01111033 10150 20111 58015
KNMM 132256Z 21005KT 10SM FEW250 13/M04 A2993 RMK AO2 SLP148 T01281039
KNMM 132156Z 21009G16KT 10SM FEW250 14/M04 A2997 RMK AO2 SLP159 T01441044
KNMM 132056Z 22009G14KT 10SM FEW250 15/M04 A2997 RMK AO2 SLP160 T01501039 56028
KNMM 131956Z 25011G18KT 10SM FEW250 15/M05 A2999 RMK AO2 SLP167 T01501050
KNMM 131856Z 22009G16KT 10SM CLR 14/M04 A3002 RMK AO2 SLP175 T01391039 $
KNMM 131756Z 23009G14KT 10SM CLR 13/M05 A3005 RMK AO2 SLP188 T01281050 10128 21022 58030 $
KNMM 131656Z 21007KT 10SM CLR 11/M06 A3009 RMK AO2 SLP202 T01061056
KNMM 131556Z VRB06KT 10SM CLR 08/M04 A3013 RMK AO2 SLP213 T00781039 $
KNMM 131456Z 17005KT 10SM CLR 05/M02 A3014 RMK AO2 SLP219 T00501022 53001 $
KNMM 131356Z 00000KT 10SM CLR 01/M02 A3013 RMK AO2 SLP216 T00111017
KNMM 131256Z 00000KT 10SM CLR M02/M04 A3014 RMK AO2 SLP219 T10221039 CHINO SOUTH VISNO SOUTH $
KNMM 131156Z 00000KT 10SM CLR M02/M03 A3014 RMK AO2 SLP220 T10171033 10022 21022 55001 $
KNMM 131056Z AUTO 00000KT 10SM CLR M02/M03 A3013 RMK AO2 SLP216 T10171033 $
KNMM 130956Z AUTO 00000KT 10SM CLR M01/M03 A3013 RMK AO2 SLP216 T10111028 $
KNMM 130856Z AUTO 00000KT 10SM CLR M01/M03 A3014 RMK AO2 SLP219 T10061028 56008 $
KNMM 130756Z AUTO 00000KT 10SM CLR M01/M02 A3014 RMK AO2 SLP220 T10061022 $
KNMM 130656Z AUTO 33003KT 10SM CLR 02/M02 A3016 RMK AO2 SLP225 T00221017 $
KNMM 130556Z AUTO 31005KT 10SM CLR 02/M02 A3017 RMK AO2 SLP226 T00221017 10089 20022 401500022 58001 $
KNMM 130456Z 32004KT 10SM CLR 03/M02 A3017 RMK AO2 SLP228 T00331017 $
KNMM 130356Z 33004KT 10SM CLR 05/M01 A3017 RMK AO2 SLP227 T00501011 $
KNMM 130256Z 32006KT 10SM CLR 06/M01 A3017 RMK AO2 SLP227 T00611006 51019 $
KNMM 130156Z 30008KT 10SM CLR 07/M01 A3015 RMK AO2 SLP222 T00671006 $
KNMM 130056Z 32007KT 10SM CLR 08/M01 A3013 RMK AO2 SLP216 T00781011 $
KNMM 122356Z 30007KT 10SM CLR 08/M01 A3011 RMK AO2 SLP210 T00781006 10150 20078 51011 $
KNMM 122256Z 32007KT 10SM CLR 11/M01 A3010 RMK AO2 SLP205 T01061006 $
KNMM 122156Z 31010KT 10SM CLR 14/M01 A3009 RMK AO2 SLP202 T01391006 $
KNMM 122056Z 33012KT 10SM CLR 15/00 A3008 RMK AO2 SLP197 T01500000 56017 $
KNMM 121956Z 32011G21KT 10SM CLR 14/00 A3008 RMK AO2 SLP197 T01440000 $
KNMM 121856Z 33008KT 10SM CLR 14/01 A3010 RMK AO2 SLP203 T01440011
KNMM 121756Z 32013G19KT 10SM CLR 14/01 A3013 RMK AO2 SLP214 T01440011 10144 20050 58007
KNMM 121656Z 34011G20KT 10SM CLR 13/01 A3015 RMK AO2 SLP219 T01280006
KNMM 121556Z 34014G19KT 10SM CLR 12/01 A3017 RMK AO2 SLP225 T01220006
KNMM 121456Z 32012KT 10SM CLR 11/01 A3015 RMK AO2 SLP222 T01060006 51030
KNMM 121356Z 32008KT 10SM CLR 08/00 A3014 RMK AO2 SLP216 T00830000
KNMM 121256Z 32006KT 10SM CLR 07/00 A3010 RMK AO2 SLP202 T00670000
KNMM 121156Z 31006KT 10SM CLR 06/00 A3006 RMK AO2 SLP191 T00610000 10117 20056 53024 $
KNMM 121056Z AUTO 32005KT 10SM CLR 07/01 A3004 RMK AO2 SLP182 T00720006 $
KNMM 120956Z AUTO 32005KT 10SM CLR 07/02 A3001 RMK AO2 SLP171 T00720017 $
KNMM 120856Z AUTO 29007KT 10SM CLR 07/02 A2999 RMK AO2 SLP166 T00720017 53005 $
KNMM 120756Z AUTO 27008KT 10SM CLR 10/02 A2998 RMK AO2 SLP161 T01000022 $
KNMM 120656Z AUTO 24008KT 10SM CLR 11/02 A2997 RMK AO2 SLP157 T01060022 $
KNMM 120556Z AUTO 25009KT 10SM CLR 12/02 A2998 RMK AO2 SLP161 T01170022 10139 20094 402000033 58018 $
KNMM 120456Z 25007KT 10SM CLR 12/02 A3000 RMK AO2 SLP169 T01220022 $
KNMM 120356Z 24008KT 10SM CLR 13/02 A3002 RMK AO2 SLP174 T01280022 $
KNMM 120256Z 24004KT 10SM CLR 12/03 A3003 RMK AO2 SLP180 T01170028 58003 $
KNMM 120156Z 20004KT 10SM CLR 11/02 A3004 RMK AO2 SLP183 T01060022 $
KNMM 120056Z 20003KT 10SM CLR 11/03 A3005 RMK AO2 SLP187 T01060028 $
KNMM 112356Z 20003KT 10SM FEW250 13/02 A3004 RMK AO2 SLP184 T01330022 10200 20122 56013 $
KNMM 112256Z 21004KT 10SM FEW250 16/01 A3005 RMK AO2 SLP188 T01560011 $
KNMM 112156Z 26006KT 10SM FEW250 19/01 A3007 RMK AO2 SLP192 T01890006 $
KNMM 112056Z 26007KT 10SM FEW250 20/01 A3008 RMK AO2 SLP196 T02000006 56025 $
KNMM 111956Z 26011KT 10SM FEW250 19/01 A3010 RMK AO2 SLP201 T01940006 $
KNMM 111856Z VRB04KT 10SM CLR 19/02 A3012 RMK AO2 SLP208 T01890022 $
KNMM 111756Z 26007KT 10SM CLR 17/02 A3015 RMK AO2 SLP222 T01670022 10172 20033 58025 $
KNMM 111656Z 23005KT 10SM CLR 14/02 A3019 RMK AO2 SLP235 T01440017 $
KNMM 111556Z 26006KT 10SM CLR 12/02 A3021 RMK AO2 SLP243 T01220017 $
KNMM 111456Z 26007KT 10SM CLR 09/01 A3023 RMK AO2 SLP248 T00890011 58002 $
KNMM 111356Z 26006KT 10SM CLR 06/00 A3024 RMK AO2 SLP251 T00610000 $
KNMM 111256Z 25005KT 10SM CLR 04/M01 A3024 RMK AO2 SLP253 T00391006 $
KNMM 111156Z 23004KT 10SM CLR 03/M01 A3023 RMK AO2 SLP250 T00331006 10061 20033 55004 $
KNMM 111056Z AUTO 00000KT 10SM CLR 04/M01 A3022 RMK AO2 SLP247 T00391011 $
KNMM 110956Z AUTO 25005KT 10SM CLR 04/M01 A3023 RMK AO2 SLP247 T00441011 $
KNMM 110856Z AUTO 24004KT 10SM CLR 06/M01 A3024 RMK AO2 SLP253 T00561011 56007 $
KNMM 110756Z AUTO 25005KT 10SM CLR 05/M02 A3025 RMK AO2 SLP255 T00501017 $
KNMM 110656Z AUTO 25006KT 10SM CLR 05/M02 A3026 RMK AO2 SLP257 T00501017 $
KNMM 110556Z AUTO 00000KT 10SM CLR 04/M02 A3027 RMK AO2 SLP261 T00391017 10072 20011 401331039 58007 $
KNMM 110456Z AUTO 26003KT 10SM CLR 04/M01 A3029 RMK AO2 SLP270 T00391011 $
KNMM 110356Z AUTO 28003KT 10SM CLR 01/M02 A3030 RMK AO2 SLP272 T00111017 $
KNMM 110256Z AUTO 22004KT 10SM CLR 04/M01 A3029 RMK AO2 SLP268 T00441006 50002 $